Time;durP1;ratioP1;P1;durP2;ratioP2;P2;SDS_P1;SDS_P2;PMS_P1;PMS_P2;Temp;Humidity;BMP_temperature;BMP_pressure;BME280_temperature;BME280_humidity;BME280_pressure;Samples;Min_cycle;Max_cycle;Signal;HPM_P1;HPM_P2
2022/07/26 00:00:13;;;;;;;;;;;;;;;21.95;49.46;96757.50;30001;983;1876;-60
2022/07/26 00:00:44;;;;;;;;;;;;;;;21.94;49.83;96766.97;30001;983;1876;-59
2022/07/26 00:01:19;;;;;;;;;;;;;;;21.92;49.66;96764.56;30001;983;1876;-59
2022/07/26 00:01:50;;;;;;;;;;;;;;;21.90;49.79;96769.66;30001;983;1876;-60
2022/07/26 00:02:21;;;;;;;;;;;;;;;21.89;49.75;96765.31;30001;983;1877;-59
2022/07/26 00:02:52;;;;;;;;;;;;;;;21.89;49.85;96770.81;30001;983;1864;-59
2022/07/26 00:03:23;;;;;;;;;;;;;;;21.86;50.81;96760.50;30001;983;1868;-59
2022/07/26 00:03:54;;;;;;;;;;;;;;;21.85;50.20;96766.41;30001;983;1877;-59
2022/07/26 00:04:25;;;;;;;;;;;;;;;21.84;50.14;96762.03;30001;983;1877;-59
2022/07/26 00:04:56;;;;;;;;;;;;;;;21.82;51.09;96770.72;30001;982;1877;-56
2022/07/26 00:05:29;;;;;;;;;;;;;;;21.80;50.64;96770.31;30001;982;1877;-57
2022/07/26 00:06:00;;;;;;;;;;;;;;;21.79;51.42;96771.47;30001;982;1877;-59
2022/07/26 00:06:31;;;;;;;;;;;;;;;21.77;50.80;96773.78;30001;982;1877;-60
2022/07/26 00:07:02;;;;;;;;;;;;;;;21.76;50.86;96769.44;30001;983;1876;-59
2022/07/26 00:07:33;;;;;;;;;;;;;;;21.76;50.96;96772.19;30001;983;1863;-60
2022/07/26 00:08:11;;;;;;;;;;;;;;;21.75;51.00;96776.13;30001;983;1868;-60
2022/07/26 00:08:42;;;;;;;;;;;;;;;21.73;52.43;96783.97;30001;983;1876;-59
2022/07/26 00:09:13;;;;;;;;;;;;;;;21.69;52.83;96783.91;30001;983;1876;-59
2022/07/26 00:09:45;;;;;;;;;;;;;;;21.67;52.27;96790.97;30001;983;1877;-59
2022/07/26 00:10:16;;;;;;;;;;;;;;;21.66;52.57;96794.88;30001;983;1876;-59
2022/07/26 00:10:48;;;;;;;;;;;;;;;21.64;53.09;96791.69;30001;983;1877;-59
2022/07/26 00:11:19;;;;;;;;;;;;;;;21.62;52.78;96785.75;30001;982;1877;-59
2022/07/26 00:11:50;;;;;;;;;;;;;;;21.60;52.33;96796.34;30001;982;1877;-55
2022/07/26 00:12:21;;;;;;;;;;;;;;;21.60;52.34;96801.88;30001;982;1877;-59
2022/07/26 00:12:53;;;;;;;;;;;;;;;21.59;52.66;96800.28;30001;982;1864;-59
2022/07/26 00:13:24;;;;;;;;;;;;;;;21.58;52.82;96798.69;30001;982;1868;-60
2022/07/26 00:13:56;;;;;;;;;;;;;;;21.56;52.24;96796.28;30001;982;1877;-55
2022/07/26 00:14:26;;;;;;;;;;;;;;;21.56;52.90;96795.50;30001;982;1877;-56
2022/07/26 00:14:58;;;;;;;;;;;;;;;21.54;52.41;96797.81;30001;983;1876;-59
2022/07/26 00:15:29;;;;;;;;;;;;;;;21.52;52.18;96795.41;30001;983;1876;-59
2022/07/26 00:16:04;;;;;;;;;;;;;;;21.51;52.59;96793.03;30001;982;1863;-59
2022/07/26 00:16:36;;;;;;;;;;;;;;;21.48;52.82;96799.31;30001;983;1868;-59
2022/07/26 00:17:07;;;;;;;;;;;;;;;21.46;52.47;96796.09;30001;983;1877;-59
2022/07/26 00:17:38;;;;;;;;;;;;;;;21.46;52.53;96793.34;30001;983;1877;-59
2022/07/26 00:18:10;;;;;;;;;;;;;;;21.46;53.06;96796.09;30001;983;1877;-59
2022/07/26 00:18:40;;;;;;;;;;;;;;;21.47;52.66;96797.69;30001;983;1877;-59
2022/07/26 00:19:11;;;;;;;;;;;;;;;21.46;53.00;96796.09;30001;982;1877;-59
2022/07/26 00:19:42;;;;;;;;;;;;;;;21.46;52.84;96796.09;30001;982;1877;-59
2022/07/26 00:20:13;;;;;;;;;;;;;;;21.45;53.95;96795.31;30001;982;1877;-59
2022/07/26 00:20:44;;;;;;;;;;;;;;;21.44;53.63;96803.94;30001;982;1864;-60
2022/07/26 00:21:15;;;;;;;;;;;;;;;21.43;53.83;96802.34;30001;982;1868;-59
2022/07/26 00:21:45;;;;;;;;;;;;;;;21.43;54.20;96807.87;30001;982;1877;-59
2022/07/26 00:22:34;;;;;;;;;;;;;;;21.39;53.82;96803.09;30001;983;1876;-59
2022/07/26 00:23:05;;;;;;;;;;;;;;;21.39;53.71;96794.81;30001;986;1876;-59
2022/07/26 00:23:36;;;;;;;;;;;;;;;21.39;53.46;96800.31;30001;983;1876;-59
2022/07/26 00:24:08;;;;;;;;;;;;;;;21.40;53.96;96798.38;30001;983;1863;-60
2022/07/26 00:24:38;;;;;;;;;;;;;;;21.38;53.41;96789.66;30001;983;1855;-60
2022/07/26 00:25:09;;;;;;;;;;;;;;;21.37;53.31;96788.84;30001;983;1877;-60
2022/07/26 00:25:40;;;;;;;;;;;;;;;21.37;52.69;96786.09;30001;983;1864;-59
2022/07/26 00:26:11;;;;;;;;;;;;;;;21.37;52.95;96788.84;30001;983;1868;-59
2022/07/26 00:26:42;;;;;;;;;;;;;;;21.36;52.71;96792.78;30001;966;1903;-60
2022/07/26 00:27:13;;;;;;;;;;;;;;;21.37;52.71;96782.53;30001;982;1877;-59
2022/07/26 00:27:43;;;;;;;;;;;;;;;21.38;53.52;96784.13;30001;982;1877;-60
2022/07/26 00:28:14;;;;;;;;;;;;;;;21.38;53.15;96778.59;30001;986;1864;-59
2022/07/26 00:28:45;;;;;;;;;;;;;;;21.38;53.39;96782.16;30001;982;1868;-59
2022/07/26 00:29:16;;;;;;;;;;;;;;;21.38;53.02;96784.94;30001;982;1877;-59
2022/07/26 00:29:47;;;;;;;;;;;;;;;21.39;54.08;96791.25;30001;983;1876;-59
2022/07/26 00:30:17;;;;;;;;;;;;;;;21.38;53.40;96787.69;30001;983;1876;-59
2022/07/26 00:30:48;;;;;;;;;;;;;;;21.38;53.54;96790.44;30001;983;1876;-59
2022/07/26 00:31:19;;;;;;;;;;;;;;;21.39;53.31;96791.25;30001;983;1877;-59
2022/07/26 00:31:50;;;;;;;;;;;;;;;21.39;53.09;96786.53;30001;983;1750;-59
2022/07/26 00:32:21;;;;;;;;;;;;;;;21.40;53.13;96787.31;30001;983;1868;-59
2022/07/26 00:32:52;;;;;;;;;;;;;;;21.40;53.52;96787.31;30001;983;1877;-59
2022/07/26 00:33:23;;;;;;;;;;;;;;;21.39;53.33;96786.53;30001;983;1877;-59
2022/07/26 00:33:53;;;;;;;;;;;;;;;21.39;53.38;96789.28;30001;986;1877;-59
2022/07/26 00:34:24;;;;;;;;;;;;;;;21.40;53.17;96788.12;30001;982;1864;-59
2022/07/26 00:34:55;;;;;;;;;;;;;;;21.41;52.79;96788.91;30001;982;1868;-59
2022/07/26 00:35:26;;;;;;;;;;;;;;;21.43;52.80;96789.34;30001;982;1877;-60
2022/07/26 00:35:57;;;;;;;;;;;;;;;21.44;52.70;96790.16;30001;982;1877;-60
2022/07/26 00:36:29;;;;;;;;;;;;;;;21.45;52.71;96789.00;30001;983;1877;-60
2022/07/26 00:37:00;;;;;;;;;;;;;;;21.45;52.77;96789.00;30001;983;1876;-61
2022/07/26 00:37:34;;;;;;;;;;;;;;;21.47;52.60;96787.47;30001;983;1876;-59
2022/07/26 00:38:04;;;;;;;;;;;;;;;21.49;52.67;96784.31;30001;983;1876;-60
2022/07/26 00:38:35;;;;;;;;;;;;;;;21.50;52.45;96780.38;30001;983;1863;-59
2022/07/26 00:39:07;;;;;;;;;;;;;;;21.51;52.24;96787.50;30001;983;1868;-59
2022/07/26 00:39:38;;;;;;;;;;;;;;;21.52;52.48;96789.91;30001;983;1877;-60
2022/07/26 00:40:10;;;;;;;;;;;;;;;21.53;52.57;96790.69;30001;983;1864;-58
2022/07/26 00:40:42;;;;;;;;;;;;;;;21.54;52.77;96786.78;30001;983;1868;-59
2022/07/26 00:41:13;;;;;;;;;;;;;;;21.54;52.26;96792.28;30001;983;1864;-59
2022/07/26 00:41:44;;;;;;;;;;;;;;;21.54;52.56;96793.09;30001;982;1868;-60
2022/07/26 00:42:15;;;;;;;;;;;;;;;21.54;52.33;96786.78;30001;982;1864;-59
2022/07/26 00:42:49;;;;;;;;;;;;;;;21.55;52.56;96791.13;30001;982;1868;-59
2022/07/26 00:43:21;;;;;;;;;;;;;;;21.56;52.51;96799.03;30001;982;1864;-59
2022/07/26 00:44:01;;;;;;;;;;;;;;;21.57;52.31;96791.56;30001;983;1867;-59
2022/07/26 00:44:42;;;;;;;;;;;;;;;21.59;52.46;96789.22;30001;983;1876;-59
2022/07/26 00:45:14;;;;;;;;;;;;;;;21.61;52.19;96792.44;30001;983;1876;-59
2022/07/26 00:45:46;;;;;;;;;;;;;;;21.60;53.03;96790.84;30001;983;1876;-59
2022/07/26 00:46:18;;;;;;;;;;;;;;;21.58;52.84;96788.44;30001;983;1876;-59
2022/07/26 00:46:50;;;;;;;;;;;;;;;21.60;52.99;96783.34;30002;983;1877;-54
2022/07/26 00:47:21;;;;;;;;;;;;;;;21.62;52.58;96788.50;30002;983;1877;-60
2022/07/26 00:47:54;;;;;;;;;;;;;;;21.62;52.72;96788.50;30002;983;1877;-59
2022/07/26 00:48:26;;;;;;;;;;;;;;;;;;30002;983;1863;-60
2022/07/26 00:48:57;;;;;;;;;;;;;;;21.67;52.06;96782.69;30002;982;1869;-59
2022/07/26 00:49:29;;;;;;;;;;;;;;;21.67;52.07;96785.44;30002;982;1877;-59
2022/07/26 00:50:00;;;;;;;;;;;;;;;21.69;52.24;96783.13;30002;982;1877;-60
2022/07/26 00:50:31;;;;;;;;;;;;;;;21.70;52.12;96784.72;30002;982;1864;-59
2022/07/26 00:51:02;;;;;;;;;;;;;;;21.68;52.38;96782.31;30002;982;1868;-59
2022/07/26 00:51:33;;;;;;;;;;;;;;;21.67;52.35;96782.69;30002;983;1876;-59
2022/07/26 00:52:04;;;;;;;;;;;;;;;;;;30002;983;1876;-60
2022/07/26 00:52:35;;;;;;;;;;;;;;;21.63;52.77;96779.84;30002;983;1878;-60
2022/07/26 00:53:05;;;;;;;;;;;;;;;21.66;52.51;96784.66;30002;983;1877;-58
2022/07/26 00:53:36;;;;;;;;;;;;;;;21.70;52.81;96787.47;30002;983;1876;-61
2022/07/26 00:54:07;;;;;;;;;;;;;;;21.72;52.35;96780.41;30002;983;1780;-60
2022/07/26 00:54:39;;;;;;;;;;;;;;;21.72;52.83;96783.19;30002;983;1877;-58
2022/07/26 00:55:10;;;;;;;;;;;;;;;21.69;52.53;96783.91;30002;983;1877;-60
2022/07/26 00:55:41;;;;;;;;;;;;;;;21.69;52.27;96791.41;30002;982;1863;-61
2022/07/26 00:56:13;;;;;;;;;;;;;;;21.68;52.74;96784.28;30002;982;1868;-60
2022/07/26 00:56:45;;;;;;;;;;;;;;;21.66;52.57;96794.88;30002;982;1877;-59
2022/07/26 00:57:15;;;;;;;;;;;;;;;21.63;52.92;96793.66;30002;982;1877;-59
2022/07/26 00:57:46;;;;;;;;;;;;;;;21.62;52.86;96794.03;30002;982;1877;-59
2022/07/26 00:58:17;;;;;;;;;;;;;;;21.62;52.89;96794.03;30002;982;1877;-60
2022/07/26 00:58:48;;;;;;;;;;;;;;;21.63;53.01;96801.16;30002;982;1864;-59
2022/07/26 00:59:19;;;;;;;;;;;;;;;21.67;52.81;96796.50;30002;983;1868;-61
2022/07/26 00:59:50;;;;;;;;;;;;;;;21.72;52.83;96794.22;30002;983;1876;-59
2022/07/26 01:00:22;;;;;;;;;;;;;;;21.73;52.50;96797.78;30002;983;1876;-59
2022/07/26 01:00:53;;;;;;;;;;;;;;;21.72;52.51;96805.28;30002;983;1877;-60
2022/07/26 01:01:24;;;;;;;;;;;;;;;21.69;52.52;96799.69;30002;983;1877;-59
2022/07/26 01:01:55;;;;;;;;;;;;;;;21.68;52.52;96798.09;30002;983;1877;-59
2022/07/26 01:02:26;;;;;;;;;;;;;;;21.67;52.39;96796.50;30002;983;1877;-60
2022/07/26 01:02:59;;;;;;;;;;;;;;;21.73;52.90;96801.34;30002;983;1864;-61
2022/07/26 01:03:30;;;;;;;;;;;;;;;21.71;52.96;96808.41;30002;982;1868;-59
2022/07/26 01:04:00;;;;;;;;;;;;;;;21.73;52.79;96800.53;30002;982;1877;-60
2022/07/26 01:04:31;;;;;;;;;;;;;;;21.72;52.58;96798.94;30002;982;1864;-60
2022/07/26 01:05:03;;;;;;;;;;;;;;;21.69;52.94;96800.47;30002;982;1869;-59
2022/07/26 01:05:34;;;;;;;;;;;;;;;21.69;52.63;96802.44;30002;982;1877;-59
2022/07/26 01:06:05;;;;;;;;;;;;;;;21.69;53.22;96802.44;30002;982;1877;-58
2022/07/26 01:06:36;;;;;;;;;;;;;;;21.68;52.75;96803.59;30002;983;1876;-62
2022/07/26 01:07:07;;;;;;;;;;;;;;;21.67;53.03;96796.50;30002;983;1876;-59
2022/07/26 01:07:39;;;;;;;;;;;;;;;21.66;52.78;96800.41;30002;983;1876;-59
2022/07/26 01:08:09;;;;;;;;;;;;;;;21.69;53.63;96805.22;30002;983;1863;-59
2022/07/26 01:08:40;;;;;;;;;;;;;;;21.67;52.92;96796.50;30002;983;1868;-59
2022/07/26 01:09:12;;;;;;;;;;;;;;;21.67;53.25;96802.00;30002;983;1877;-54
2022/07/26 01:09:43;;;;;;;;;;;;;;;;;;30002;983;1877;-59
2022/07/26 01:10:14;;;;;;;;;;;;;;;21.64;53.27;96794.47;30002;983;1878;-63
2022/07/26 01:10:44;;;;;;;;;;;;;;;21.63;53.27;96790.09;30002;982;1877;-59
2022/07/26 01:11:15;;;;;;;;;;;;;;;21.64;53.11;96791.69;30002;982;1864;-59
2022/07/26 01:11:46;;;;;;;;;;;;;;;21.64;53.14;96797.22;30002;982;1855;-59
2022/07/26 01:12:17;;;;;;;;;;;;;;;;;;30002;982;1877;-62
2022/07/26 01:12:48;;;;;;;;;;;;;;;21.70;53.36;96795.75;30002;982;1879;-60
2022/07/26 01:13:22;;;;;;;;;;;;;;;21.72;53.54;96797.00;30002;983;1876;-59
2022/07/26 01:13:52;;;;;;;;;;;;;;;21.73;52.99;96795.03;30002;983;1876;-58
2022/07/26 01:14:24;;;;;;;;;;;;;;;21.74;53.33;96799.37;30002;983;1876;-62
2022/07/26 01:14:54;;;;;;;;;;;;;;;21.75;53.07;96803.75;30002;983;1876;-59
2022/07/26 01:15:25;;;;;;;;;;;;;;;21.78;52.89;96804.97;30002;983;1863;-59
2022/07/26 01:15:56;;;;;;;;;;;;;;;21.83;53.08;96805.44;30002;983;1855;-60
2022/07/26 01:16:28;;;;;;;;;;;;;;;21.86;53.33;96803.91;30002;983;1877;-65
2022/07/26 01:16:59;;;;;;;;;;;;;;;21.84;52.93;96809.81;30002;983;1877;-60
2022/07/26 01:17:29;;;;;;;;;;;;;;;21.82;53.25;96798.34;30002;983;1877;-57
2022/07/26 01:18:00;;;;;;;;;;;;;;;21.82;53.08;96798.34;30002;987;1873;-61
2022/07/26 01:18:31;;;;;;;;;;;;;;;21.82;53.47;96797.56;30002;982;1877;-65
2022/07/26 01:19:02;;;;;;;;;;;;;;;21.82;53.13;96803.06;30002;982;1877;-57
2022/07/26 01:19:33;;;;;;;;;;;;;;;21.83;53.49;96796.38;30002;982;1877;-59
2022/07/26 01:20:04;;;;;;;;;;;;;;;21.84;53.06;96796.00;30002;982;1877;-61
2022/07/26 01:20:36;;;;;;;;;;;;;;;21.83;53.29;96794.41;30002;982;1877;-61
2022/07/26 01:21:09;;;;;;;;;;;;;;;21.78;53.36;96803.00;30002;983;1863;-60
2022/07/26 01:21:40;;;;;;;;;;;;;;;21.71;53.62;96798.16;30002;983;1868;-60
2022/07/26 01:22:10;;;;;;;;;;;;;;;21.71;53.59;96802.88;30002;983;1876;-61
2022/07/26 01:22:42;;;;;;;;;;;;;;;21.67;54.54;96805.56;30002;983;1876;-64
2022/07/26 01:23:13;;;;;;;;;;;;;;;21.67;53.90;96807.53;30002;983;1876;-59
2022/07/26 01:23:44;;;;;;;;;;;;;;;21.71;54.53;96806.44;30002;983;1877;-66
2022/07/26 01:24:15;;;;;;;;;;;;;;;21.71;54.71;96800.13;30002;983;1876;-65
2022/07/26 01:24:46;;;;;;;;;;;;;;;21.73;54.97;96812.38;30002;983;1877;-60
2022/07/26 01:25:27;;;;;;;;;;;;;;;21.75;54.80;96803.75;30002;983;1877;-59
2022/07/26 01:25:57;;;;;;;;;;;;;;;21.69;55.10;96810.72;30002;982;1864;-69
2022/07/26 01:26:28;;;;;;;;;;;;;;;21.64;55.90;96808.25;30002;982;1868;-64
2022/07/26 01:26:59;;;;;;;;;;;;;;;21.56;55.66;96801.81;30002;982;1877;-64
2022/07/26 01:27:30;;;;;;;;;;;;;;;21.51;56.20;96809.59;30002;982;1877;-61
2022/07/26 01:28:02;;;;;;;;;;;;;;;21.46;56.55;96798.88;30002;982;1877;-60
2022/07/26 01:28:37;;;;;;;;;;;;;;;21.42;56.24;96806.28;30002;983;1876;-53
2022/07/26 01:29:08;;;;;;;;;;;;;;;21.47;56.78;96806.78;30002;983;1863;-60
2022/07/26 01:29:39;;;;;;;;;;;;;;;21.51;56.80;96804.06;30002;983;1854;-63
2022/07/26 01:30:11;;;;;;;;;;;;;;;21.45;57.12;96805.56;30002;983;1876;-52
2022/07/26 01:30:43;;;;;;;;;;;;;;;21.38;56.94;96801.47;30002;983;1863;-59
2022/07/26 01:31:14;;;;;;;;;;;;;;;21.29;57.37;96809.19;30002;983;1868;-58
2022/07/26 01:31:45;;;;;;;;;;;;;;;21.19;58.42;96808.94;30002;983;1877;-60
2022/07/26 01:32:17;;;;;;;;;;;;;;;21.08;57.92;96808.75;30002;983;1787;-60
2022/07/26 01:32:47;;;;;;;;;;;;;;;21.08;58.49;96808.75;30002;983;1877;-67
2022/07/26 01:33:18;;;;;;;;;;;;;;;21.07;58.39;96801.63;30002;983;1877;-60
2022/07/26 01:33:50;;;;;;;;;;;;;;;21.03;58.78;96811.78;30002;982;1877;-57
2022/07/26 01:34:21;;;;;;;;;;;;;;;21.01;58.95;96805.81;30002;982;1864;-61
2022/07/26 01:34:52;;;;;;;;;;;;;;;20.98;59.07;96814.81;30002;982;1868;-59
2022/07/26 01:35:23;;;;;;;;;;;;;;;20.92;59.25;96811.56;30002;982;1877;-58
2022/07/26 01:35:54;;;;;;;;;;;;;;;20.85;59.89;96803.12;30002;983;1876;-52
2022/07/26 01:36:24;;;;;;;;;;;;;;;20.79;59.84;96806.53;30002;983;1876;-60
2022/07/26 01:36:56;;;;;;;;;;;;;;;20.75;60.03;96806.47;30002;983;1876;-59
2022/07/26 01:37:26;;;;;;;;;;;;;;;20.78;60.01;96810.47;30002;983;1876;-61
2022/07/26 01:37:57;;;;;;;;;;;;;;;20.80;59.88;96808.13;30002;983;1863;-61
2022/07/26 01:38:28;;;;;;;;;;;;;;;20.76;60.84;96810.81;30002;983;1868;-60
2022/07/26 01:38:59;;;;;;;;;;;;;;;20.76;60.07;96808.06;30001;983;1877;-61
2022/07/26 01:39:30;;;;;;;;;;;;;;;20.77;60.43;96814.37;30001;983;1877;-61
2022/07/26 01:40:01;;;;;;;;;;;;;;;20.76;60.21;96813.56;30001;983;1877;-61
2022/07/26 01:40:33;;;;;;;;;;;;;;;20.76;60.45;96821.06;30001;982;1864;-59
2022/07/26 01:41:05;;;;;;;;;;;;;;;20.71;60.48;96814.66;30002;982;1868;-55
2022/07/26 01:41:36;;;;;;;;;;;;;;;20.66;61.22;96814.94;30001;982;1877;-59
2022/07/26 01:42:06;;;;;;;;;;;;;;;20.60;61.24;96821.88;30001;982;1877;-59
2022/07/26 01:42:39;;;;;;;;;;;;;;;20.56;61.30;96820.19;30001;982;1877;-60
2022/07/26 01:43:10;;;;;;;;;;;;;;;20.54;60.84;96817.78;30001;982;1877;-59
2022/07/26 01:43:42;;;;;;;;;;;;;;;20.51;61.25;96813.00;30001;970;1897;-60
2022/07/26 01:44:12;;;;;;;;;;;;;;;20.52;61.30;96820.13;30001;983;1876;-59
2022/07/26 01:44:44;;;;;;;;;;;;;;;20.55;61.72;96813.88;30001;983;1863;-60
2022/07/26 01:45:14;;;;;;;;;;;;;;;20.52;62.02;96809.09;30001;983;1868;-54
2022/07/26 01:45:46;;;;;;;;;;;;;;;20.48;62.36;96813.72;30001;983;1877;-59
2022/07/26 01:46:17;;;;;;;;;;;;;;;20.44;62.42;96807.34;30001;983;1877;-53
2022/07/26 01:46:48;;;;;;;;;;;;;;;20.40;61.90;96818.28;30001;983;1877;-61
2022/07/26 01:47:19;;;;;;;;;;;;;;;20.40;62.43;96817.50;30001;983;1877;-61
2022/07/26 01:47:50;;;;;;;;;;;;;;;20.43;61.62;96819.53;30002;982;1784;-61
2022/07/26 01:48:21;;;;;;;;;;;;;;;20.43;61.62;96815.97;30001;982;1868;-58
2022/07/26 01:48:52;;;;;;;;;;;;;;;20.39;61.18;96816.69;30001;982;1877;-59
2022/07/26 01:49:23;;;;;;;;;;;;;;;20.38;61.19;96814.28;30001;982;1877;-60
2022/07/26 01:49:53;;;;;;;;;;;;;;;20.35;61.41;96809.47;30001;982;1877;-60
2022/07/26 01:50:24;;;;;;;;;;;;;;;20.32;61.77;96812.94;30001;982;1877;-59
2022/07/26 01:50:55;;;;;;;;;;;;;;;20.30;61.51;96812.47;30001;982;1877;-59
2022/07/26 01:51:26;;;;;;;;;;;;;;;20.30;61.54;96812.47;30001;983;1876;-63
2022/07/26 01:51:57;;;;;;;;;;;;;;;20.30;61.12;96813.28;30001;983;1876;-61
2022/07/26 01:52:28;;;;;;;;;;;;;;;20.30;61.28;96818.78;30001;983;1876;-60
2022/07/26 01:52:59;;;;;;;;;;;;;;;20.31;61.00;96814.09;30002;983;1753;-60
2022/07/26 01:53:30;;;;;;;;;;;;;;;20.29;60.57;96813.63;30001;983;1868;-60
2022/07/26 01:54:01;;;;;;;;;;;;;;;20.30;60.64;96813.28;30001;983;1877;-59
2022/07/26 01:54:32;;;;;;;;;;;;;;;20.30;61.15;96813.28;30001;983;1877;-60
2022/07/26 01:55:04;;;;;;;;;;;;;;;20.29;61.15;96816.41;30001;983;1877;-59
2022/07/26 01:55:35;;;;;;;;;;;;;;;20.26;61.58;96808.84;30001;985;1872;-60
2022/07/26 01:56:07;;;;;;;;;;;;;;;20.24;61.58;96814.72;30001;982;1877;-59
2022/07/26 01:56:38;;;;;;;;;;;;;;;20.23;60.91;96807.59;30001;982;1877;-60
2022/07/26 01:57:08;;;;;;;;;;;;;;;20.24;61.45;96808.41;30001;982;1877;-59
2022/07/26 01:57:39;;;;;;;;;;;;;;;20.21;61.14;96809.91;30001;982;1877;-59
2022/07/26 01:58:10;;;;;;;;;;;;;;;20.22;61.31;96810.72;30001;982;1864;-58
2022/07/26 01:58:41;;;;;;;;;;;;;;;20.22;60.93;96811.50;30001;983;1868;-58
2022/07/26 01:59:12;;;;;;;;;;;;;;;20.22;61.20;96818.97;30001;983;1876;-58
2022/07/26 01:59:43;;;;;;;;;;;;;;;20.23;61.18;96817.81;30001;983;1876;-59
2022/07/26 02:00:14;;;;;;;;;;;;;;;20.25;61.03;96818.25;30001;983;1877;-58
2022/07/26 02:00:45;;;;;;;;;;;;;;;20.25;61.40;96807.25;30001;983;1876;-59
2022/07/26 02:01:16;;;;;;;;;;;;;;;20.24;61.75;96806.44;30001;983;1877;-59
2022/07/26 02:01:47;;;;;;;;;;;;;;;20.23;61.08;96812.31;30001;983;1863;-59
2022/07/26 02:02:18;;;;;;;;;;;;;;;20.23;61.77;96806.81;30001;983;1868;-59
2022/07/26 02:02:49;;;;;;;;;;;;;;;20.20;61.11;96807.50;30001;982;1877;-59
2022/07/26 02:03:19;;;;;;;;;;;;;;;20.20;61.63;96802.00;30001;982;1877;-59
2022/07/26 02:03:50;;;;;;;;;;;;;;;20.19;62.03;96803.16;30001;982;1877;-59
2022/07/26 02:05:10;;;;;;;;;;;;;;;20.16;61.40;96801.13;30001;982;1864;-59
2022/07/26 02:05:41;;;;;;;;;;;;;;;20.16;61.38;96803.88;30001;983;1867;-58
2022/07/26 02:06:11;;;;;;;;;;;;;;;20.18;61.85;96801.56;30001;983;1863;-58
2022/07/26 02:06:42;;;;;;;;;;;;;;;20.17;61.92;96794.44;30002;983;1767;-58
2022/07/26 02:07:13;;;;;;;;;;;;;;;20.18;62.07;96801.56;30001;983;1876;-57
2022/07/26 02:07:44;;;;;;;;;;;;;;;20.18;62.19;96793.28;30001;983;1863;-58
2022/07/26 02:08:14;;;;;;;;;;;;;;;20.17;62.04;96800.75;30001;983;1868;-58
2022/07/26 02:08:45;;;;;;;;;;;;;;;20.16;62.09;96792.84;30001;983;1863;-59
2022/07/26 02:09:17;;;;;;;;;;;;;;;20.16;61.77;96801.91;30001;983;1868;-58
2022/07/26 02:09:48;;;;;;;;;;;;;;;20.16;61.91;96795.59;30001;983;1877;-59
2022/07/26 02:10:19;;;;;;;;;;;;;;;20.15;61.87;96799.50;30001;982;1877;-59
2022/07/26 02:10:59;;;;;;;;;;;;;;;20.15;61.49;96799.50;30001;982;1877;-58
2022/07/26 02:11:30;;;;;;;;;;;;;;;20.15;61.86;96796.75;30001;982;1877;-58
2022/07/26 02:12:01;;;;;;;;;;;;;;;20.18;61.97;96801.56;30001;982;1877;-60
2022/07/26 02:12:32;;;;;;;;;;;;;;;20.18;61.99;96809.81;30001;982;1877;-59
2022/07/26 02:13:03;;;;;;;;;;;;;;;20.20;62.47;96807.50;30001;983;1876;-60
2022/07/26 02:13:35;;;;;;;;;;;;;;;20.19;62.01;96800.41;30001;983;1876;-59
2022/07/26 02:14:06;;;;;;;;;;;;;;;20.19;62.02;96803.97;30001;983;1863;-60
2022/07/26 02:14:37;;;;;;;;;;;;;;;20.19;62.29;96803.16;30001;983;1868;-60
2022/07/26 02:15:08;;;;;;;;;;;;;;;20.18;62.25;96804.31;30001;983;1876;-60
2022/07/26 02:15:39;;;;;;;;;;;;;;;20.16;62.37;96801.13;30001;983;1877;-59
2022/07/26 02:16:12;;;;;;;;;;;;;;;20.15;62.86;96802.28;30001;983;1877;-59
2022/07/26 02:16:43;;;;;;;;;;;;;;;20.14;63.65;96806.19;30001;983;1877;-59
2022/07/26 02:17:14;;;;;;;;;;;;;;;20.12;62.55;96808.50;30001;983;1877;-60
2022/07/26 02:17:45;;;;;;;;;;;;;;;20.12;62.53;96805.72;30001;983;1864;-59
2022/07/26 02:18:16;;;;;;;;;;;;;;;20.12;62.60;96803.78;30001;983;1868;-59
2022/07/26 02:18:47;;;;;;;;;;;;;;;20.13;62.81;96799.87;30001;982;1877;-60
2022/07/26 02:19:18;;;;;;;;;;;;;;;20.13;62.52;96799.87;30001;982;1877;-59
2022/07/26 02:19:49;;;;;;;;;;;;;;;20.13;62.95;96802.63;30001;982;1877;-59
2022/07/26 02:20:20;;;;;;;;;;;;;;;20.14;62.94;96803.44;30001;983;1876;-58
2022/07/26 02:20:50;;;;;;;;;;;;;;;20.13;63.33;96801.81;30001;983;1876;-59
2022/07/26 02:21:22;;;;;;;;;;;;;;;20.13;62.88;96804.56;30001;983;1876;-58
2022/07/26 02:21:52;;;;;;;;;;;;;;;20.12;63.03;96800.22;30001;983;1876;-59
2022/07/26 02:22:24;;;;;;;;;;;;;;;20.12;63.68;96798.28;30001;983;1876;-59
2022/07/26 02:22:55;;;;;;;;;;;;;;;20.11;64.96;96793.91;30001;983;1863;-59
2022/07/26 02:23:26;;;;;;;;;;;;;;;20.09;64.46;96790.75;30001;983;1868;-60
2022/07/26 02:23:57;;;;;;;;;;;;;;;20.08;64.24;96789.94;30001;983;1877;-60
2022/07/26 02:24:28;;;;;;;;;;;;;;;20.09;63.57;96796.25;30001;983;1877;-59
2022/07/26 02:24:59;;;;;;;;;;;;;;;20.11;63.50;96798.63;30001;983;1864;-60
2022/07/26 02:25:30;;;;;;;;;;;;;;;20.10;63.73;96799.81;30001;982;1868;-60
2022/07/26 02:26:01;;;;;;;;;;;;;;;20.10;64.02;96794.31;30001;982;1877;-59
2022/07/26 02:26:32;;;;;;;;;;;;;;;20.10;63.67;96791.53;30001;982;1864;-59
2022/07/26 02:27:03;;;;;;;;;;;;;;;20.10;64.04;96797.06;30001;982;1868;-54
2022/07/26 02:27:34;;;;;;;;;;;;;;;20.09;63.17;96796.25;30001;982;1877;-60
2022/07/26 02:28:05;;;;;;;;;;;;;;;20.10;63.76;96788.78;30001;983;1876;-59
2022/07/26 02:28:36;;;;;;;;;;;;;;;20.10;63.72;96792.31;30001;983;1794;-59
2022/07/26 02:29:07;;;;;;;;;;;;;;;20.11;63.95;96787.59;30001;983;1876;-59
2022/07/26 02:29:38;;;;;;;;;;;;;;;20.11;63.92;96793.13;30001;983;1876;-60
2022/07/26 02:30:09;;;;;;;;;;;;;;;20.10;63.82;96797.81;30001;983;1876;-59
2022/07/26 02:30:41;;;;;;;;;;;;;;;20.10;63.76;96791.53;30001;966;1822;-59
2022/07/26 02:31:11;;;;;;;;;;;;;;;20.10;63.56;96786.81;30001;983;1868;-59
2022/07/26 02:31:42;;;;;;;;;;;;;;;20.11;63.65;96795.88;30001;983;1864;-60
2022/07/26 02:32:13;;;;;;;;;;;;;;;20.11;63.43;96793.13;30001;983;1868;-59
2022/07/26 02:32:44;;;;;;;;;;;;;;;20.11;63.09;96793.13;30001;983;1877;-59
2022/07/26 02:33:15;;;;;;;;;;;;;;;20.12;63.41;96789.22;30001;982;1877;-59
2022/07/26 02:33:46;;;;;;;;;;;;;;;20.11;64.66;96788.41;30001;982;1877;-59
2022/07/26 02:34:17;;;;;;;;;;;;;;;20.10;64.29;96788.78;30001;982;1877;-59
2022/07/26 02:34:48;;;;;;;;;;;;;;;20.08;63.74;96787.19;30001;982;1877;-60
2022/07/26 02:35:19;;;;;;;;;;;;;;;20.10;63.92;96786.03;30001;982;1864;-59
2022/07/26 02:35:50;;;;;;;;;;;;;;;20.09;63.81;96790.75;30001;983;1868;-59
2022/07/26 02:36:21;;;;;;;;;;;;;;;20.08;63.80;96784.44;30001;983;1876;-59
2022/07/26 02:36:52;;;;;;;;;;;;;;;20.09;63.63;96796.25;30001;983;1876;-59
2022/07/26 02:37:23;;;;;;;;;;;;;;;20.11;63.21;96793.13;30001;983;1863;-59
2022/07/26 02:37:54;;;;;;;;;;;;;;;20.11;63.59;96790.38;30001;983;1868;-59
2022/07/26 02:38:24;;;;;;;;;;;;;;;20.11;63.73;96791.16;30001;983;1877;-59
2022/07/26 02:38:55;;;;;;;;;;;;;;;20.13;63.74;96797.13;30001;983;1877;-61
2022/07/26 02:39:26;;;;;;;;;;;;;;;20.17;63.62;96797.19;30001;983;1877;-60
2022/07/26 02:39:57;;;;;;;;;;;;;;;20.18;63.24;96793.28;30001;982;1877;-61
2022/07/26 02:40:28;;;;;;;;;;;;;;;20.19;62.85;96794.91;30001;982;1877;-59
2022/07/26 02:40:59;;;;;;;;;;;;;;;20.22;62.66;96799.69;30001;974;1899;-59
2022/07/26 02:41:30;;;;;;;;;;;;;;;20.22;63.12;96799.69;30001;982;1877;-59
2022/07/26 02:42:01;;;;;;;;;;;;;;;20.21;62.85;96800.84;30001;982;1877;-59
2022/07/26 02:42:33;;;;;;;;;;;;;;;20.20;63.12;96796.50;30001;982;1864;-59
2022/07/26 02:43:05;;;;;;;;;;;;;;;20.18;64.31;96793.28;30001;983;1868;-59
2022/07/26 02:43:36;;;;;;;;;;;;;;;20.16;63.95;96795.59;30001;983;1876;-59
2022/07/26 02:44:07;;;;;;;;;;;;;;;20.13;63.96;96797.13;30001;983;1876;-59
2022/07/26 02:44:40;;;;;;;;;;;;;;;20.12;63.74;96791.97;30001;983;1876;-56
2022/07/26 02:45:11;;;;;;;;;;;;;;;20.14;63.27;96797.91;30001;983;1877;-55
2022/07/26 02:45:42;;;;;;;;;;;;;;;20.15;63.18;96791.25;30001;983;1877;-60
2022/07/26 02:46:13;;;;;;;;;;;;;;;20.17;63.09;96794.44;30001;983;1877;-59
2022/07/26 02:46:44;;;;;;;;;;;;;;;20.18;63.35;96793.28;30001;983;1877;-59
2022/07/26 02:47:15;;;;;;;;;;;;;;;20.20;63.13;96790.97;30001;982;1864;-59
2022/07/26 02:47:46;;;;;;;;;;;;;;;20.21;63.12;96789.81;30001;982;1868;-59
2022/07/26 02:48:17;;;;;;;;;;;;;;;20.20;63.80;96797.28;30001;982;1877;-55
2022/07/26 02:48:48;;;;;;;;;;;;;;;20.19;64.00;96800.41;30001;982;1877;-59